createdAt,value
2023-04-15T00:01:52.995Z,101885.74
2023-04-15T00:04:22.047Z,101890.29
2023-04-15T00:06:55.484Z,101885.56
2023-04-15T00:09:24.268Z,101886.44
2023-04-15T00:11:52.942Z,101880.31
2023-04-15T00:14:22.234Z,101876.46
2023-04-15T00:16:55.887Z,101877.34
2023-04-15T00:19:25.545Z,101876.81
2023-04-15T00:21:53.992Z,101883.64
2023-04-15T00:24:22.282Z,101882.95
2023-04-15T00:26:50.485Z,101882.23
2023-04-15T00:29:20.555Z,101883.64
2023-04-15T00:31:49.163Z,101880.50
2023-04-15T00:34:17.654Z,101873.85
2023-04-15T00:36:49.146Z,101875.61
2023-04-15T00:39:18.225Z,101877.17
2023-04-15T00:41:46.894Z,101881.20
2023-04-15T00:44:15.414Z,101884.52
2023-04-15T00:46:44.464Z,101889.24
2023-04-15T00:49:13.553Z,101887.50
2023-04-15T00:51:43.895Z,101885.23
2023-04-15T00:54:12.540Z,101882.95
2023-04-15T00:56:42.880Z,101882.95
2023-04-15T00:59:11.549Z,101879.80
2023-04-15T01:01:40.525Z,101877.02
2023-04-15T01:04:11.719Z,101883.48
2023-04-15T01:06:40.181Z,101880.16
2023-04-15T01:09:08.641Z,101877.17
2023-04-15T01:11:41.723Z,101879.46
2023-04-15T01:14:10.630Z,101876.30
2023-04-15T01:16:40.157Z,101876.30
2023-04-15T01:19:09.054Z,101873.49
2023-04-15T01:21:39.807Z,101873.33
2023-04-15T01:24:10.108Z,101874.90
2023-04-15T01:26:39.583Z,101877.34
2023-04-15T01:29:09.908Z,101872.80
2023-04-15T01:31:38.244Z,101868.94
2023-04-15T01:34:09.353Z,101867.52
2023-04-15T01:36:37.843Z,101864.21
2023-04-15T01:39:08.619Z,101862.48
2023-04-15T01:41:37.560Z,101856.16
2023-04-15T01:44:07.358Z,101851.45
2023-04-15T01:46:38.127Z,101853.17
2023-04-15T01:49:06.812Z,101853.00
2023-04-15T01:51:35.118Z,101853.00
2023-04-15T01:54:04.275Z,101853.17
2023-04-15T01:56:33.773Z,101858.23
2023-04-15T01:59:04.073Z,101861.73
2023-04-15T02:01:32.519Z,101858.59
2023-04-15T02:04:02.257Z,101857.19
2023-04-15T02:06:32.853Z,101857.02
2023-04-15T02:09:05.357Z,101858.05
2023-04-15T02:11:35.408Z,101862.25
2023-04-15T02:14:06.029Z,101864.52
2023-04-15T02:16:34.571Z,101865.05
2023-04-15T02:19:05.326Z,101865.58
2023-04-15T02:21:35.595Z,101869.41
2023-04-15T02:24:04.912Z,101871.70
2023-04-15T02:26:38.011Z,101873.97
2023-04-15T02:29:07.360Z,101876.59
2023-04-15T02:31:40.690Z,101885.15
2023-04-15T02:34:14.336Z,101891.45
2023-04-15T02:36:44.838Z,101897.40
2023-04-15T02:39:15.017Z,101901.77
2023-04-15T02:44:20.740Z,101915.05
2023-04-15T02:46:52.736Z,101937.42
2023-04-15T02:49:25.924Z,101936.20
2023-04-15T02:51:55.648Z,101938.30
2023-04-15T02:54:26.285Z,101941.61
2023-04-15T02:56:58.443Z,101943.54
2023-04-15T02:59:26.628Z,101945.81
2023-04-15T03:01:56.681Z,101941.96
2023-04-15T03:04:25.276Z,101948.09
2023-04-15T03:06:53.638Z,101955.27
2023-04-15T03:09:23.253Z,101952.45
2023-04-15T03:11:53.803Z,101965.40
2023-04-15T03:14:27.387Z,101966.45
2023-04-15T03:16:56.854Z,101973.10
2023-04-15T03:19:25.793Z,101975.72
2023-04-15T03:21:57.412Z,101984.29
2023-04-15T03:24:26.402Z,101984.10
2023-04-15T03:26:55.533Z,101987.77
2023-04-15T03:29:24.621Z,101990.56
2023-04-15T03:32:01.516Z,101995.10
2023-04-15T03:34:32.600Z,102000.35
2023-04-15T03:37:01.258Z,102003.67
2023-04-15T03:39:29.837Z,102001.75
2023-04-15T03:41:59.936Z,101997.55
2023-04-15T03:44:33.117Z,102007.52
2023-04-15T03:47:01.632Z,102005.08
2023-04-15T03:49:30.224Z,102004.54
2023-04-15T03:52:00.000Z,102005.95
2023-04-15T03:54:28.201Z,102006.65
2023-04-15T03:56:57.043Z,102007.70
2023-04-15T03:59:26.729Z,102015.76
2023-04-15T04:01:54.961Z,102013.83
2023-04-15T04:04:23.487Z,102008.61
2023-04-15T04:06:54.386Z,102011.92
2023-04-15T04:09:23.068Z,102020.50
2023-04-15T04:11:51.469Z,102019.10
2023-04-15T04:14:23.022Z,102020.48
2023-04-15T04:16:51.771Z,102023.99
2023-04-15T04:19:21.536Z,102026.10
2023-04-15T04:21:52.028Z,102027.67
2023-04-15T04:24:20.306Z,102028.02
2023-04-15T04:26:48.752Z,102028.58
2023-04-15T04:29:21.145Z,102034.34
2023-04-15T04:31:50.824Z,102042.21
2023-04-15T04:34:19.560Z,102042.55
2023-04-15T04:36:47.836Z,102042.92
2023-04-15T04:39:17.650Z,102039.07
2023-04-15T04:41:46.223Z,102040.45
2023-04-15T04:44:14.604Z,102040.11
2023-04-15T04:46:42.997Z,102036.80
2023-04-15T04:49:11.300Z,102035.23
2023-04-15T04:51:42.578Z,102031.91
2023-04-15T04:54:12.237Z,102032.77
2023-04-15T04:56:40.513Z,102033.14
2023-04-15T04:59:13.325Z,102030.86
2023-04-15T05:01:42.967Z,102041.17
2023-04-15T05:04:11.662Z,102043.44
2023-04-15T05:06:46.261Z,102047.45
2023-04-15T05:09:16.704Z,102041.88
2023-04-15T05:11:44.903Z,102039.96
2023-04-15T05:14:13.893Z,102042.94
2023-04-15T05:16:57.341Z,102047.69
2023-04-15T05:19:25.684Z,102038.07
2023-04-15T05:21:54.370Z,102032.82
2023-04-15T05:24:22.568Z,102033.69
2023-04-15T05:26:51.345Z,102032.31
2023-04-15T05:29:19.964Z,102039.31
2023-04-15T05:31:48.370Z,102040.01
2023-04-15T05:34:19.503Z,102031.09
2023-04-15T05:36:48.001Z,102028.98
2023-04-15T05:39:16.316Z,102026.89
2023-04-15T05:41:45.109Z,102028.47
2023-04-15T05:44:15.948Z,102034.60
2023-04-15T05:46:47.504Z,102040.57
2023-04-15T05:49:15.811Z,102042.69
2023-04-15T05:51:48.806Z,102044.98
2023-04-15T05:54:18.672Z,102045.67
2023-04-15T05:56:48.678Z,102042.52
2023-04-15T05:59:17.052Z,102049.34
2023-04-15T06:01:48.906Z,102051.27
2023-04-15T06:04:18.333Z,102058.98
2023-04-15T06:06:47.334Z,102064.04
2023-04-15T06:09:16.296Z,102067.02
2023-04-15T06:11:45.867Z,102067.54
2023-04-15T06:14:14.411Z,102069.27
2023-04-15T06:16:42.684Z,102068.39
2023-04-15T06:19:11.494Z,102069.63
2023-04-15T06:21:40.751Z,102066.65
2023-04-15T06:24:08.970Z,102062.63
2023-04-15T06:26:39.735Z,102064.57
2023-04-15T06:29:08.457Z,102063.52
2023-04-15T06:31:36.810Z,102061.77
2023-04-15T06:34:05.444Z,102063.88
2023-04-15T06:36:34.002Z,102062.30
2023-04-15T06:39:04.338Z,102061.61
2023-04-15T06:41:34.450Z,102065.46
2023-04-15T06:44:03.022Z,102068.28
2023-04-15T06:46:35.706Z,102068.47
2023-04-15T06:49:04.541Z,102067.79
2023-04-15T06:51:35.325Z,102070.08
2023-04-15T06:54:06.858Z,102072.70
2023-04-15T06:56:36.607Z,102071.30
2023-04-15T06:59:04.968Z,102071.30
2023-04-15T07:01:36.616Z,102075.67
2023-04-15T07:04:05.549Z,102084.27
2023-04-15T07:06:34.135Z,102088.84
2023-04-15T07:09:05.716Z,102094.27
2023-04-15T07:11:34.456Z,102093.20
2023-04-15T07:14:02.947Z,102093.39
2023-04-15T07:16:33.976Z,102089.88
2023-04-15T07:19:02.654Z,102089.36
2023-04-15T07:21:31.219Z,102095.16
2023-04-15T07:23:59.456Z,102098.66
2023-04-15T07:26:28.294Z,102103.40
2023-04-15T07:28:58.784Z,102103.39
2023-04-15T07:31:27.720Z,102103.05
2023-04-15T07:33:58.807Z,102106.92
2023-04-15T07:36:27.597Z,102113.95
2023-04-15T07:38:56.135Z,102111.85
2023-04-15T07:41:27.732Z,102110.45
2023-04-15T07:43:56.277Z,102112.20
2023-04-15T07:46:24.968Z,102115.35
2023-04-15T07:48:56.266Z,102109.92
2023-04-15T07:51:30.069Z,102107.48
2023-04-15T07:53:59.529Z,102104.84
2023-04-15T07:56:27.986Z,102098.72
2023-04-15T07:58:56.832Z,102091.34
2023-04-15T08:01:26.969Z,102089.59
2023-04-15T08:03:55.616Z,102088.02
2023-04-15T08:06:28.360Z,102085.73
2023-04-15T08:08:57.893Z,102088.69
2023-04-15T08:11:26.932Z,102086.73
2023-04-15T08:14:00.113Z,102083.92
2023-04-15T08:16:32.351Z,102083.56
2023-04-15T08:19:01.522Z,102080.75
2023-04-15T08:21:31.265Z,102080.58
2023-04-15T08:24:00.466Z,102080.75
2023-04-15T08:26:29.874Z,102080.38
2023-04-15T08:28:58.337Z,102080.91
2023-04-15T08:31:27.124Z,102081.09
2023-04-15T08:34:00.731Z,102073.38
2023-04-15T08:36:33.228Z,102075.30
2023-04-15T08:39:02.548Z,102079.15
2023-04-15T08:42:03.852Z,102084.94
2023-04-15T08:44:37.220Z,102087.21
2023-04-15T08:47:08.746Z,102084.94
2023-04-15T08:49:40.149Z,102077.58
2023-04-15T08:52:10.459Z,102081.42
2023-04-15T08:54:42.394Z,102079.14
2023-04-15T08:57:11.134Z,102076.50
2023-04-15T08:59:39.621Z,102072.98
2023-04-15T09:02:08.744Z,102062.64
2023-04-15T09:04:37.707Z,102064.19
2023-04-15T09:07:06.465Z,102070.48
2023-04-15T09:09:37.719Z,102063.99
2023-04-15T09:12:06.490Z,102063.67
2023-04-15T09:14:35.364Z,102063.14
2023-04-15T09:17:04.819Z,102062.08
2023-04-15T09:19:36.826Z,102062.59
2023-04-15T09:22:05.752Z,102069.78
2023-04-15T09:24:39.255Z,102069.95
2023-04-15T09:27:07.862Z,102064.17
2023-04-15T09:29:37.587Z,102062.60
2023-04-15T09:32:13.026Z,102058.39
2023-04-15T09:34:41.637Z,102051.23
2023-04-15T09:37:11.189Z,102049.99
2023-04-15T09:39:50.452Z,102046.67
2023-04-15T09:42:24.529Z,102054.72
2023-04-15T09:44:55.764Z,102048.77
2023-04-15T09:47:31.809Z,102051.59
2023-04-15T09:50:01.963Z,102054.75
2023-04-15T09:52:31.413Z,102047.72
2023-04-15T09:55:00.217Z,102049.29
2023-04-15T09:57:55.590Z,102051.36
2023-04-15T10:00:25.090Z,102058.52
2023-04-15T10:02:53.586Z,102052.90
2023-04-15T10:05:22.291Z,102052.55
2023-04-15T10:07:50.850Z,102051.49
2023-04-15T10:10:19.520Z,102054.11
2023-04-15T10:12:49.329Z,102055.85
2023-04-15T10:15:18.125Z,102059.16
2023-04-15T10:17:46.636Z,102058.13
2023-04-15T10:20:15.318Z,102054.77
2023-04-15T10:22:44.176Z,102057.39
2023-04-15T10:25:14.342Z,102056.67
2023-04-15T10:27:42.982Z,102056.14
2023-04-15T10:30:12.100Z,102059.63
2023-04-15T10:32:41.304Z,102055.20
2023-04-15T10:35:09.957Z,102057.45
2023-04-15T10:37:41.175Z,102059.21
2023-04-15T10:40:28.309Z,102060.10
2023-04-15T10:42:56.905Z,102061.49
2023-04-15T10:45:45.166Z,102057.80
2023-04-15T10:48:13.588Z,102058.84
2023-04-15T10:50:41.921Z,102064.27
2023-04-15T10:53:10.848Z,102063.39
2023-04-15T10:55:39.321Z,102064.27
2023-04-15T10:58:08.307Z,102061.64
2023-04-15T11:00:39.699Z,102056.21
2023-04-15T11:03:09.372Z,102048.30
2023-04-15T11:05:53.734Z,102046.58
2023-04-15T11:08:43.080Z,102046.73
2023-04-15T11:11:11.674Z,102051.95
2023-04-15T11:13:48.524Z,102047.55
2023-04-15T11:16:17.288Z,102044.74
2023-04-15T11:18:54.841Z,102045.78
2023-04-15T11:21:25.290Z,102045.60
2023-04-15T11:23:53.600Z,102041.73
2023-04-15T11:26:27.281Z,102034.19
2023-04-15T11:28:56.321Z,102031.36
2023-04-15T11:31:24.659Z,102032.57
2023-04-15T11:33:57.160Z,102030.83
2023-04-15T11:36:29.520Z,102025.41
2023-04-15T11:38:59.230Z,102018.42
2023-04-15T11:41:27.511Z,102019.13
2023-04-15T11:43:55.838Z,102011.89
2023-04-15T11:46:30.548Z,102016.26
2023-04-15T11:48:58.905Z,102020.96
2023-04-15T11:51:27.274Z,102025.31
2023-04-15T11:53:59.053Z,102020.04
2023-04-15T11:56:27.906Z,102015.32
2023-04-15T11:58:58.555Z,102017.23
2023-04-15T12:01:35.449Z,102024.44
2023-04-15T12:04:12.458Z,102017.55
2023-04-15T12:06:41.692Z,102019.31
2023-04-15T12:09:16.474Z,102018.27
2023-04-15T12:11:50.799Z,102020.75
2023-04-15T12:14:29.252Z,102018.67
2023-04-15T12:17:02.381Z,102015.55
2023-04-15T12:19:37.755Z,102017.64
2023-04-15T12:22:14.197Z,102015.86
2023-04-15T12:24:44.608Z,102012.71
2023-04-15T12:27:13.112Z,102006.04
2023-04-15T12:29:43.436Z,102004.46
2023-04-15T12:32:16.376Z,102008.84
2023-04-15T12:34:50.548Z,102002.66
2023-04-15T12:37:18.960Z,102001.96
2023-04-15T12:39:49.675Z,101996.70
2023-04-15T12:42:18.614Z,101998.10
2023-04-15T12:44:47.781Z,101994.43
2023-04-15T12:47:16.596Z,101992.35
2023-04-15T12:49:47.690Z,101984.30
2023-04-15T12:52:18.984Z,101980.77
2023-04-15T12:54:47.216Z,101979.02
2023-04-15T12:57:15.776Z,101979.34
2023-04-15T12:59:44.689Z,101980.70
2023-04-15T13:02:14.004Z,101985.95
2023-04-15T13:04:42.738Z,101987.87
2023-04-15T13:07:13.803Z,101979.62
2023-04-15T13:09:42.264Z,101978.60
2023-04-15T13:12:10.601Z,101978.08
2023-04-15T13:14:39.248Z,101979.66
2023-04-15T13:17:10.470Z,101987.57
2023-04-15T13:19:39.140Z,101990.88
2023-04-15T13:22:08.584Z,101991.05
2023-04-15T13:24:37.388Z,101984.92
2023-04-15T13:27:06.167Z,101978.41
2023-04-15T13:29:35.730Z,101979.98
2023-04-15T13:32:04.728Z,101982.75
2023-04-15T13:34:33.150Z,101986.27
2023-04-15T13:37:07.501Z,101987.86
2023-04-15T13:39:36.714Z,101992.45
2023-04-15T13:42:05.652Z,101988.59
2023-04-15T13:44:34.104Z,101983.32
2023-04-15T13:47:02.608Z,101981.74
2023-04-15T13:49:31.792Z,101978.61
2023-04-15T13:52:00.052Z,101985.11
2023-04-15T13:54:37.344Z,101985.47
2023-04-15T13:57:06.804Z,101987.23
2023-04-15T13:59:37.618Z,101991.12
2023-04-15T14:02:06.330Z,101994.31
2023-04-15T14:04:36.970Z,101998.17
2023-04-15T14:07:06.034Z,101989.77
2023-04-15T14:09:35.552Z,101984.90
2023-04-15T14:12:05.115Z,101980.88
2023-04-15T14:14:35.049Z,101982.48
2023-04-15T14:17:04.629Z,101978.27
2023-04-15T14:19:33.030Z,101979.86
2023-04-15T14:22:01.549Z,101982.00
2023-04-15T14:24:30.135Z,101977.98
2023-04-15T14:26:59.085Z,101988.52
2023-04-15T14:29:28.126Z,101988.89
2023-04-15T14:32:07.128Z,101986.08
2023-04-15T14:34:41.384Z,101989.95
2023-04-15T14:37:09.800Z,101992.60
2023-04-15T14:39:37.994Z,101991.73
2023-04-15T14:42:06.321Z,101992.61
2023-04-15T14:44:36.442Z,101999.10
2023-04-15T14:47:04.804Z,102000.67
2023-04-15T14:49:33.842Z,102000.85
2023-04-15T14:52:02.028Z,102005.76
2023-04-15T14:54:30.546Z,102010.69
2023-04-15T14:56:59.033Z,102006.67
2023-04-15T15:02:02.470Z,102025.63
2023-04-15T15:04:35.613Z,102013.89
2023-04-15T15:07:04.531Z,102017.77
2023-04-15T15:09:35.016Z,102019.70
2023-04-15T15:12:03.741Z,102012.86
2023-04-15T15:22:03.108Z,102027.53
2023-04-15T15:24:31.511Z,102030.55
2023-04-15T15:27:00.382Z,102033.36
2023-04-15T15:29:29.007Z,102031.81
2023-04-15T15:31:57.284Z,102034.27
2023-04-15T15:34:26.855Z,102033.04
2023-04-15T15:36:56.241Z,102033.58
2023-04-15T15:39:26.971Z,102036.23
2023-04-15T15:41:55.613Z,102037.27
2023-04-15T15:44:23.883Z,102036.92
2023-04-15T15:46:52.208Z,102037.10
2023-04-15T15:49:20.870Z,102035.34
2023-04-15T15:51:50.038Z,102036.58
2023-04-15T15:54:18.261Z,102038.16
2023-04-15T15:56:48.560Z,102033.42
2023-04-15T15:59:17.061Z,102025.89
2023-04-15T16:01:45.370Z,102032.39
2023-04-15T16:04:15.364Z,102026.42
2023-04-15T16:06:45.749Z,102028.54
2023-04-15T16:09:17.073Z,102028.54
2023-04-15T16:11:46.078Z,102029.08
2023-04-15T16:14:15.029Z,102032.93
2023-04-15T16:16:43.239Z,102029.27
2023-04-15T16:19:11.911Z,102021.54
2023-04-15T16:21:40.181Z,102018.05
2023-04-15T16:24:08.359Z,102013.84
2023-04-15T16:26:36.801Z,102007.70
2023-04-15T16:29:05.260Z,102009.98
2023-04-15T16:31:35.853Z,102011.56
2023-04-15T16:34:04.166Z,102022.80
2023-04-15T16:36:34.517Z,102027.17
2023-04-15T16:39:02.985Z,102029.80
2023-04-15T16:41:33.922Z,102045.80
2023-04-15T16:44:03.580Z,102046.85
2023-04-15T16:46:32.112Z,102064.05
2023-04-15T16:49:00.458Z,102072.98
2023-04-15T16:51:31.662Z,102081.76
2023-04-15T16:53:59.967Z,102085.10
2023-04-15T16:56:29.553Z,102091.42
2023-04-15T16:58:57.808Z,102091.23
2023-04-15T17:01:27.093Z,102103.34
2023-04-15T17:03:56.861Z,102111.59
2023-04-15T17:06:26.648Z,102119.31
2023-04-15T17:08:54.888Z,102124.04
2023-04-15T17:11:23.143Z,102124.57
2023-04-15T17:13:51.348Z,102130.02
2023-04-15T17:16:19.677Z,102131.77
2023-04-15T17:18:48.458Z,102122.64
2023-04-15T17:21:18.433Z,102120.38
2023-04-15T17:23:46.944Z,102123.71
2023-04-15T17:26:15.806Z,102127.21
2023-04-15T17:28:44.103Z,102123.71
2023-04-15T17:31:13.099Z,102122.66
2023-04-15T17:33:56.122Z,102130.55
2023-04-15T17:36:30.150Z,102130.38
2023-04-15T17:39:00.257Z,102135.47
2023-04-15T17:41:28.629Z,102137.75
2023-04-15T17:43:58.236Z,102147.91
2023-04-15T17:46:27.332Z,102148.44
2023-04-15T17:48:55.634Z,102144.59
2023-04-15T17:51:23.908Z,102144.59
2023-04-15T17:54:08.197Z,102144.94
2023-04-15T17:56:37.036Z,102139.16
2023-04-15T17:59:06.608Z,102140.73
2023-04-15T18:01:35.422Z,102143.90
2023-04-15T18:04:04.753Z,102150.39
2023-04-15T18:06:36.048Z,102148.80
2023-04-15T18:09:05.107Z,102158.10
2023-04-15T18:11:33.953Z,102157.58
2023-04-15T18:14:03.408Z,102156.86
2023-04-15T18:16:32.462Z,102158.98
2023-04-15T18:19:01.464Z,102163.02
2023-04-15T18:21:31.695Z,102168.44
2023-04-15T18:24:00.155Z,102163.54
2023-04-15T18:26:28.898Z,102162.30
2023-04-15T18:28:57.225Z,102166.17
2023-04-15T18:31:25.786Z,102172.30
2023-04-15T18:33:54.583Z,102172.32
2023-04-15T18:36:22.886Z,102175.64
2023-04-15T18:38:52.308Z,102172.48
2023-04-15T18:41:27.971Z,102176.52
2023-04-15T18:44:00.566Z,102183.35
2023-04-15T18:46:29.795Z,102185.81
2023-04-15T18:48:58.141Z,102183.89
2023-04-15T18:51:27.662Z,102178.97
2023-04-15T18:53:56.235Z,102179.66
2023-04-15T18:56:24.931Z,102177.39
2023-04-15T18:59:18.305Z,102179.85
2023-04-15T19:01:42.178Z,102178.97
2023-04-15T19:04:12.483Z,102180.20
2023-04-15T19:06:41.103Z,102178.61
2023-04-15T19:09:09.533Z,102176.00
2023-04-15T19:11:39.330Z,102180.91
2023-04-15T19:14:07.574Z,102179.52
2023-04-15T19:16:37.113Z,102183.89
2023-04-15T19:19:06.915Z,102184.94
2023-04-15T19:21:36.326Z,102185.64
2023-04-15T19:24:04.624Z,102184.77
2023-04-15T19:26:33.843Z,102187.05
2023-04-15T19:29:06.284Z,102183.19
2023-04-15T19:31:35.211Z,102182.14
2023-04-15T19:34:03.578Z,102184.40
2023-04-15T19:36:32.454Z,102182.14
2023-04-15T19:39:01.095Z,102183.73
2023-04-15T19:41:30.227Z,102188.63
2023-04-15T19:43:58.446Z,102187.40
2023-04-15T19:46:29.264Z,102186.35
2023-04-15T19:48:58.146Z,102180.39
2023-04-15T19:51:28.943Z,102177.58
2023-04-15T19:54:00.471Z,102180.73
2023-04-15T19:56:30.429Z,102170.92
2023-04-15T19:59:03.209Z,102171.27
2023-04-15T20:01:32.189Z,102166.35
2023-04-15T20:04:01.185Z,102174.60
2023-04-15T20:06:29.823Z,102183.01
2023-04-15T20:08:58.507Z,102182.83
2023-04-15T20:12:10.065Z,102185.64
2023-04-15T20:14:21.847Z,102194.40
2023-04-15T20:16:50.438Z,102195.81
2023-04-15T20:19:18.752Z,102198.08
2023-04-15T20:21:46.962Z,102205.26
2023-04-15T20:24:15.209Z,102202.98
2023-04-15T20:26:43.809Z,102204.20
2023-04-15T20:29:13.275Z,102205.79
2023-04-15T20:31:41.728Z,102208.94
2023-04-15T20:34:12.025Z,102211.21
2023-04-15T20:36:41.544Z,102205.77
2023-04-15T20:39:09.763Z,102203.85
2023-04-15T20:41:38.121Z,102210.52
2023-04-15T20:44:06.391Z,102212.63
2023-04-15T20:46:35.502Z,102213.48
2023-04-15T20:49:03.970Z,102211.56
2023-04-15T20:51:37.824Z,102213.66
2023-04-15T20:54:06.671Z,102211.38
2023-04-15T20:56:34.915Z,102207.70
2023-04-15T20:59:03.270Z,102205.77
2023-04-15T21:01:31.839Z,102208.39
2023-04-15T21:04:00.819Z,102216.80
2023-04-15T21:06:29.282Z,102217.52
2023-04-15T21:08:57.577Z,102224.86
2023-04-15T21:11:46.387Z,102226.61
2023-04-15T21:14:16.175Z,102226.80
2023-04-15T21:16:44.778Z,102226.79
2023-04-15T21:19:13.485Z,102223.10
2023-04-15T21:21:41.822Z,102225.38
2023-04-15T21:24:10.030Z,102227.14
2023-04-15T21:26:38.363Z,102229.06
2023-04-15T21:29:08.725Z,102228.35
2023-04-15T21:31:39.028Z,102235.55
2023-04-15T21:34:07.313Z,102236.06
2023-04-15T21:36:35.684Z,102236.23
2023-04-15T21:39:04.516Z,102234.30
2023-04-15T21:41:32.948Z,102232.36
2023-04-15T21:44:01.451Z,102238.13
2023-04-15T21:46:33.353Z,102234.09
2023-04-15T21:49:04.344Z,102233.90
2023-04-15T21:51:33.663Z,102230.94
2023-04-15T21:54:02.854Z,102231.80
2023-04-15T21:56:31.442Z,102228.11
2023-04-15T21:58:59.726Z,102224.44
2023-04-15T22:01:28.181Z,102228.81
2023-04-15T22:03:56.714Z,102228.98
2023-04-15T22:06:25.433Z,102226.52
2023-04-15T22:08:57.494Z,102223.55
2023-04-15T22:11:27.977Z,102221.24
2023-04-15T22:14:01.062Z,102224.92
2023-04-15T22:16:30.334Z,102222.30
2023-04-15T22:18:58.642Z,102223.70
2023-04-15T22:21:27.150Z,102227.02
2023-04-15T22:24:33.565Z,102223.16
2023-04-15T22:26:44.016Z,102228.77
2023-04-15T22:29:13.025Z,102218.42
2023-04-15T22:31:42.102Z,102226.81
2023-04-15T22:34:10.330Z,102228.74
2023-04-15T22:36:38.739Z,102235.05
2023-04-15T22:39:07.301Z,102240.48
2023-04-15T22:41:36.011Z,102234.17
2023-04-15T22:44:04.290Z,102236.44
2023-04-15T22:46:33.792Z,102237.83
2023-04-15T22:49:02.039Z,102236.96
2023-04-15T22:51:30.359Z,102237.30
2023-04-15T22:53:58.735Z,102236.25
2023-04-15T22:56:26.952Z,102235.55
2023-04-15T22:58:55.472Z,102231.86
2023-04-15T23:01:23.626Z,102234.65
2023-04-15T23:03:56.719Z,102233.41
2023-04-15T23:06:32.719Z,102234.45
2023-04-15T23:09:01.517Z,102236.56
2023-04-15T23:11:30.180Z,102243.55
2023-04-15T23:13:58.473Z,102240.58
2023-04-15T23:16:27.315Z,102245.65
2023-04-15T23:18:55.759Z,102248.09
2023-04-15T23:21:26.032Z,102247.40
2023-04-15T23:23:54.665Z,102247.57
2023-04-15T23:26:23.784Z,102252.45
2023-04-15T23:28:52.400Z,102256.48
2023-04-15T23:31:20.823Z,102259.27
2023-04-15T23:33:49.101Z,102263.80
2023-04-15T23:36:17.633Z,102265.90
2023-04-15T23:38:45.930Z,102268.34
2023-04-15T23:41:14.209Z,102267.11
2023-04-15T23:43:42.401Z,102270.96
2023-04-15T23:46:12.111Z,102281.62
2023-04-15T23:48:42.117Z,102285.31
2023-04-15T23:51:10.286Z,102288.10
2023-04-15T23:53:39.237Z,102290.55
2023-04-15T23:56:07.734Z,102294.04
2023-04-15T23:58:36.921Z,102297.00
